Time;durP1;ratioP1;P1;durP2;ratioP2;P2;SDS_P1;SDS_P2;PMS_P1;PMS_P2;Temp;Humidity;BMP_temperature;BMP_pressure;BME280_temperature;BME280_humidity;BME280_pressure;Samples;Min_cycle;Max_cycle;Signal;HPM_P1;HPM_P2
2021/07/05 00:00:28;;;;;;;;;;;17.10;89.20;;;;;;4992294;28;19931;-71
2021/07/05 00:02:53;;;;;;;;;;;17.20;89.50;;;;;;4993352;28;19953;-72
2021/07/05 00:05:19;;;;;;;;;;;17.10;90.00;;;;;;4992928;28;19920;-72
2021/07/05 00:07:48;;;;;;;;;;;17.10;89.70;;;;;;4993077;28;19981;-72
2021/07/05 00:10:14;;;;;;;;;;;17.10;89.20;;;;;;4993371;28;19968;-71
2021/07/05 00:12:44;;;;;;;;;;;17.10;89.90;;;;;;4995213;28;19922;-71
2021/07/05 00:15:10;;;;;;;;;;;17.10;91.00;;;;;;4997278;28;19923;-71
2021/07/05 00:17:36;;;;;;;;;;;17.00;91.00;;;;;;4979551;28;19927;-72
2021/07/05 00:20:02;;;;;;;;;;;16.90;90.10;;;;;;4997078;28;19950;-72
2021/07/05 00:22:28;;;;;;;;;;;16.70;90.70;;;;;;4997373;28;19968;-73
2021/07/05 00:24:53;;;;;;;;;;;16.70;90.40;;;;;;4996969;28;20392;-72
2021/07/05 00:27:19;;;;;;;;;;;16.70;90.70;;;;;;4996934;28;19931;-71
2021/07/05 00:29:44;;;;;;;;;;;16.70;90.90;;;;;;4997442;28;20012;-72
2021/07/05 00:32:10;;;;;;;;;;;16.60;90.50;;;;;;4996805;28;20400;-72
2021/07/05 00:34:35;;;;;;;;;;;16.70;91.00;;;;;;4996860;28;19923;-72
2021/07/05 00:37:01;;;;;;;;;;;16.70;91.00;;;;;;5004946;28;19921;-72
2021/07/05 00:39:26;;;;;;;;;;;16.70;91.00;;;;;;5015405;28;20301;-71
2021/07/05 00:41:52;;;;;;;;;;;16.70;90.50;;;;;;5016260;28;20143;-72
2021/07/05 00:44:17;;;;;;;;;;;16.80;90.30;;;;;;5016129;28;19928;-72
2021/07/05 00:46:43;;;;;;;;;;;16.80;90.90;;;;;;5016242;28;20018;-72
2021/07/05 00:49:08;;;;;;;;;;;16.80;90.60;;;;;;5016610;28;20356;-73
2021/07/05 00:51:34;;;;;;;;;;;16.80;90.10;;;;;;5016375;28;19969;-73
2021/07/05 00:53:59;;;;;;;;;;;16.80;90.50;;;;;;5016238;28;19937;-72
2021/07/05 00:56:25;;;;;;;;;;;16.80;90.10;;;;;;5014432;28;19929;-72
2021/07/05 00:58:50;;;;;;;;;;;16.80;90.30;;;;;;5015092;28;20293;-72
2021/07/05 01:01:17;;;;;;;;;;;16.80;90.80;;;;;;4998511;28;19956;-72
2021/07/05 01:03:42;;;;;;;;;;;16.80;90.60;;;;;;5016225;28;19928;-72
2021/07/05 01:06:08;;;;;;;;;;;16.80;90.60;;;;;;5015784;28;19923;-71
2021/07/05 01:08:34;;;;;;;;;;;16.90;90.40;;;;;;5014578;28;19927;-73
2021/07/05 01:10:59;;;;;;;;;;;16.80;90.40;;;;;;5014811;28;19932;-71
2021/07/05 01:13:25;;;;;;;;;;;16.80;90.30;;;;;;5016059;28;20360;-72
2021/07/05 01:15:50;;;;;;;;;;;16.80;90.40;;;;;;5015639;28;19975;-72
2021/07/05 01:18:16;;;;;;;;;;;16.80;90.50;;;;;;5015764;28;19926;-73
2021/07/05 01:20:41;;;;;;;;;;;16.70;90.50;;;;;;5015628;28;19922;-72
2021/07/05 01:23:10;;;;;;;;;;;16.70;90.50;;;;;;5014384;28;19990;-72
2021/07/05 01:25:36;;;;;;;;;;;16.70;90.30;;;;;;4998337;28;19925;-72
2021/07/05 01:28:02;;;;;;;;;;;16.80;90.60;;;;;;5014453;28;20020;-72
2021/07/05 01:30:28;;;;;;;;;;;16.80;90.20;;;;;;5015651;28;19931;-71
2021/07/05 01:33:01;;;;;;;;;;;16.70;90.40;;;;;;5014289;28;19932;-73
2021/07/05 01:35:26;;;;;;;;;;;16.70;90.40;;;;;;5015315;28;19979;-72
2021/07/05 01:37:52;;;;;;;;;;;16.70;90.30;;;;;;4998583;28;20421;-72
2021/07/05 01:40:18;;;;;;;;;;;16.80;90.10;;;;;;4994817;28;20046;-73
2021/07/05 01:42:52;;;;;;;;;;;16.80;90.70;;;;;;4995629;28;20001;-72
2021/07/05 01:45:18;;;;;;;;;;;16.70;90.30;;;;;;4994679;28;19930;-72
2021/07/05 01:47:43;;;;;;;;;;;16.70;90.60;;;;;;4995496;28;20309;-72
2021/07/05 01:50:09;;;;;;;;;;;16.70;90.60;;;;;;4995859;28;19922;-72
2021/07/05 01:52:34;;;;;;;;;;;16.60;90.30;;;;;;4995843;28;19933;-72
2021/07/05 01:55:00;;;;;;;;;;;16.70;90.60;;;;;;4994303;28;19937;-72
2021/07/05 01:57:25;;;;;;;;;;;16.70;90.70;;;;;;4995297;28;20310;-72
2021/07/05 01:59:52;;;;;;;;;;;16.70;91.30;;;;;;4995659;28;19924;-72
2021/07/05 02:02:17;;;;;;;;;;;16.70;90.80;;;;;;4995350;28;19952;-71
2021/07/05 02:04:44;;;;;;;;;;;16.70;90.30;;;;;;4995429;28;20012;-72
2021/07/05 02:07:10;;;;;;;;;;;16.70;90.70;;;;;;4994003;28;20381;-72
2021/07/05 02:09:35;;;;;;;;;;;16.70;90.50;;;;;;4994296;28;19925;-72
2021/07/05 02:12:01;;;;;;;;;;;16.70;90.60;;;;;;4995309;28;19922;-72
2021/07/05 02:14:26;;;;;;;;;;;16.70;90.80;;;;;;4995050;28;20289;-72
2021/07/05 02:16:52;;;;;;;;;;;16.70;91.00;;;;;;4993919;28;19971;-72
2021/07/05 02:19:18;;;;;;;;;;;16.70;90.60;;;;;;4995064;28;20295;-72
2021/07/05 02:21:44;;;;;;;;;;;16.70;91.00;;;;;;4993901;28;19948;-71
2021/07/05 02:24:09;;;;;;;;;;;16.80;90.90;;;;;;4995250;28;19947;-72
2021/07/05 02:26:35;;;;;;;;;;;16.80;91.70;;;;;;4994825;28;19925;-72
2021/07/05 02:29:00;;;;;;;;;;;16.80;91.10;;;;;;4995054;28;19922;-72
2021/07/05 02:31:26;;;;;;;;;;;16.80;91.20;;;;;;4994901;28;20396;-73
2021/07/05 02:33:51;;;;;;;;;;;16.80;91.00;;;;;;4994465;28;19921;-73
2021/07/05 02:36:17;;;;;;;;;;;16.80;91.30;;;;;;4996786;28;20098;-71
2021/07/05 02:38:42;;;;;;;;;;;16.80;91.10;;;;;;5014635;28;19926;-72
2021/07/05 02:41:08;;;;;;;;;;;16.80;91.30;;;;;;5014388;28;20358;-72
2021/07/05 02:43:33;;;;;;;;;;;16.70;91.10;;;;;;5014012;28;19924;-72
2021/07/05 02:45:59;;;;;;;;;;;16.80;91.10;;;;;;5012557;28;19924;-71
2021/07/05 02:48:25;;;;;;;;;;;16.80;91.20;;;;;;5012854;28;19958;-72
2021/07/05 02:50:52;;;;;;;;;;;16.80;91.80;;;;;;5014224;28;19922;-72
2021/07/05 02:53:18;;;;;;;;;;;16.80;91.40;;;;;;5014018;28;20416;-72
2021/07/05 02:55:43;;;;;;;;;;;16.70;91.70;;;;;;5012400;28;19947;-73
2021/07/05 02:58:09;;;;;;;;;;;16.70;91.80;;;;;;5013109;28;19955;-72
2021/07/05 03:00:38;;;;;;;;;;;16.70;91.80;;;;;;5013850;28;19923;-72
2021/07/05 03:03:03;;;;;;;;;;;16.80;91.40;;;;;;5012716;28;19960;-72
2021/07/05 03:05:29;;;;;;;;;;;16.80;91.90;;;;;;5012401;28;19922;-72
2021/07/05 03:07:55;;;;;;;;;;;16.70;91.50;;;;;;5012340;28;19928;-72
2021/07/05 03:10:21;;;;;;;;;;;16.80;91.90;;;;;;5012532;28;19927;-72
2021/07/05 03:12:47;;;;;;;;;;;16.80;91.40;;;;;;5012315;28;20368;-73
2021/07/05 03:15:13;;;;;;;;;;;16.80;91.30;;;;;;5012268;28;20061;-72
2021/07/05 03:17:39;;;;;;;;;;;16.80;91.50;;;;;;5012105;28;19932;-72
2021/07/05 03:20:06;;;;;;;;;;;16.70;91.20;;;;;;5013450;28;20282;-71
2021/07/05 03:22:31;;;;;;;;;;;16.70;91.80;;;;;;5013578;28;19952;-72
2021/07/05 03:24:57;;;;;;;;;;;16.70;91.60;;;;;;5013247;28;20020;-73
2021/07/05 03:27:26;;;;;;;;;;;16.60;91.40;;;;;;5013022;28;20327;-72
2021/07/05 03:29:52;;;;;;;;;;;16.60;91.50;;;;;;5012421;28;19925;-72
2021/07/05 03:32:17;;;;;;;;;;;16.50;92.00;;;;;;5013275;28;19976;-73
2021/07/05 03:34:43;;;;;;;;;;;16.50;91.70;;;;;;5013127;28;19932;-72
2021/07/05 03:37:08;;;;;;;;;;;16.40;92.20;;;;;;5003732;28;20008;-70
2021/07/05 03:39:34;;;;;;;;;;;16.50;91.80;;;;;;4993769;28;20384;-72
2021/07/05 03:41:59;;;;;;;;;;;16.50;91.70;;;;;;4992557;28;19995;-72
2021/07/05 03:44:25;;;;;;;;;;;16.50;91.60;;;;;;4993561;28;20444;-71
2021/07/05 03:46:50;;;;;;;;;;;16.50;91.70;;;;;;4992586;28;19929;-72
2021/07/05 03:49:16;;;;;;;;;;;16.50;91.80;;;;;;4993648;28;19922;-71
2021/07/05 03:51:41;;;;;;;;;;;16.60;91.40;;;;;;4975968;28;20062;-73
2021/07/05 03:54:07;;;;;;;;;;;16.50;91.60;;;;;;4993310;28;20432;-71
2021/07/05 03:56:32;;;;;;;;;;;16.50;91.80;;;;;;4993277;28;20036;-72
2021/07/05 03:58:58;;;;;;;;;;;16.50;91.70;;;;;;4993513;28;20299;-72
2021/07/05 04:01:23;;;;;;;;;;;16.50;92.10;;;;;;4993513;28;20435;-71
2021/07/05 04:03:49;;;;;;;;;;;16.40;92.20;;;;;;4993357;28;20332;-72
2021/07/05 04:06:15;;;;;;;;;;;16.40;92.00;;;;;;4992084;28;19962;-72
2021/07/05 04:08:40;;;;;;;;;;;16.40;92.20;;;;;;4993141;28;20341;-72
2021/07/05 04:11:06;;;;;;;;;;;16.30;92.20;;;;;;4993402;28;20434;-72
2021/07/05 04:13:32;;;;;;;;;;;16.40;91.90;;;;;;4993211;28;19979;-72
2021/07/05 04:15:57;;;;;;;;;;;16.40;92.20;;;;;;4992041;28;20442;-72
2021/07/05 04:18:23;;;;;;;;;;;16.50;91.90;;;;;;4993533;28;20026;-72
2021/07/05 04:20:48;;;;;;;;;;;16.50;91.80;;;;;;4993265;28;19931;-73
2021/07/05 04:23:14;;;;;;;;;;;16.40;91.90;;;;;;4991878;28;19944;-71
2021/07/05 04:25:40;;;;;;;;;;;16.40;92.10;;;;;;4993094;28;20212;-71
2021/07/05 04:28:05;;;;;;;;;;;16.40;92.20;;;;;;4993200;28;19930;-73
2021/07/05 04:30:31;;;;;;;;;;;16.40;91.90;;;;;;4992234;28;19929;-72
2021/07/05 04:32:57;;;;;;;;;;;16.40;92.20;;;;;;4991647;28;20386;-72
2021/07/05 04:35:23;;;;;;;;;;;16.40;91.90;;;;;;4993057;28;19928;-72
2021/07/05 04:37:49;;;;;;;;;;;16.40;91.70;;;;;;5006153;28;19926;-72
2021/07/05 04:40:18;;;;;;;;;;;16.50;91.70;;;;;;5012727;28;19920;-72
2021/07/05 04:42:43;;;;;;;;;;;16.50;91.70;;;;;;5011209;28;19947;-72
2021/07/05 04:45:09;;;;;;;;;;;16.40;92.10;;;;;;5011317;28;19929;-72
2021/07/05 04:47:35;;;;;;;;;;;16.40;92.00;;;;;;5012381;28;19976;-71
2021/07/05 04:50:01;;;;;;;;;;;16.50;91.70;;;;;;5011334;28;19923;-72
2021/07/05 04:52:26;;;;;;;;;;;16.40;91.80;;;;;;5012428;28;19920;-72
2021/07/05 04:54:53;;;;;;;;;;;16.40;92.20;;;;;;5012272;28;19983;-72
2021/07/05 04:57:19;;;;;;;;;;;16.40;92.40;;;;;;5012805;28;20041;-71
2021/07/05 04:59:44;;;;;;;;;;;16.40;92.00;;;;;;5014833;28;19966;-71
2021/07/05 05:02:10;;;;;;;;;;;16.40;92.20;;;;;;5015038;28;20487;-72
2021/07/05 05:04:35;;;;;;;;;;;16.40;91.90;;;;;;5014798;28;19924;-72
2021/07/05 05:07:01;;;;;;;;;;;16.40;92.20;;;;;;5016034;28;20379;-72
2021/07/05 05:09:26;;;;;;;;;;;16.50;92.00;;;;;;5014837;28;19922;-72
2021/07/05 05:11:52;;;;;;;;;;;16.50;91.80;;;;;;5016119;28;19923;-72
2021/07/05 05:14:17;;;;;;;;;;;16.50;91.80;;;;;;5015705;28;19920;-72
2021/07/05 05:16:43;;;;;;;;;;;16.50;91.80;;;;;;5015838;28;20381;-72
2021/07/05 05:19:08;;;;;;;;;;;16.60;91.80;;;;;;5015785;28;20023;-72
2021/07/05 05:21:34;;;;;;;;;;;16.70;91.90;;;;;;5015904;28;20292;-71
2021/07/05 05:24:00;;;;;;;;;;;16.80;91.50;;;;;;5015621;28;19920;-71
2021/07/05 05:26:25;;;;;;;;;;;16.90;91.50;;;;;;5015582;28;19921;-72
2021/07/05 05:28:51;;;;;;;;;;;17.00;91.80;;;;;;5015718;28;19922;-72
2021/07/05 05:31:17;;;;;;;;;;;17.00;91.50;;;;;;5014753;28;19927;-72
2021/07/05 05:33:42;;;;;;;;;;;17.10;91.30;;;;;;5015500;28;19926;-73
2021/07/05 05:36:08;;;;;;;;;;;17.10;91.80;;;;;;5014036;28;20410;-72
2021/07/05 05:38:34;;;;;;;;;;;17.00;91.20;;;;;;4995841;28;19928;-72
2021/07/05 05:40:59;;;;;;;;;;;17.00;91.40;;;;;;4995996;28;19963;-72
2021/07/05 05:43:25;;;;;;;;;;;17.00;91.40;;;;;;4995588;28;19955;-73
2021/07/05 05:45:50;;;;;;;;;;;17.00;91.40;;;;;;4995595;28;19920;-72
2021/07/05 05:48:15;;;;;;;;;;;17.10;91.50;;;;;;4995720;28;19927;-72
2021/07/05 05:50:41;;;;;;;;;;;17.20;91.40;;;;;;4995918;28;19924;-72
2021/07/05 05:53:07;;;;;;;;;;;17.20;91.60;;;;;;4996669;28;19929;-72
2021/07/05 05:55:32;;;;;;;;;;;17.30;91.30;;;;;;4996013;28;19937;-71
2021/07/05 05:57:58;;;;;;;;;;;17.20;91.20;;;;;;4995353;28;19955;-72
2021/07/05 06:00:24;;;;;;;;;;;17.20;91.30;;;;;;4994371;28;19974;-71
2021/07/05 06:02:50;;;;;;;;;;;17.10;91.50;;;;;;4994230;28;19949;-72
2021/07/05 06:05:15;;;;;;;;;;;17.20;91.30;;;;;;4977882;28;20352;-72
2021/07/05 06:07:46;;;;;;;;;;;17.30;91.60;;;;;;4993953;28;20435;-72
2021/07/05 06:10:12;;;;;;;;;;;17.40;91.20;;;;;;4993540;28;20294;-72
2021/07/05 06:12:37;;;;;;;;;;;17.50;91.40;;;;;;4995125;28;19931;-73
2021/07/05 06:15:03;;;;;;;;;;;17.60;90.90;;;;;;4995047;28;20301;-71
2021/07/05 06:17:29;;;;;;;;;;;17.50;91.10;;;;;;4993808;28;20447;-72
2021/07/05 06:19:54;;;;;;;;;;;17.50;91.10;;;;;;4993624;28;19924;-72
2021/07/05 06:22:28;;;;;;;;;;;17.50;91.10;;;;;;4993797;28;20033;-71
2021/07/05 06:24:54;;;;;;;;;;;17.60;91.30;;;;;;4994833;28;19949;-72
2021/07/05 06:27:20;;;;;;;;;;;17.60;90.80;;;;;;4993852;28;19928;-72
2021/07/05 06:29:45;;;;;;;;;;;17.70;90.90;;;;;;4994682;28;19923;-73
2021/07/05 06:32:11;;;;;;;;;;;17.80;90.60;;;;;;4994768;28;19922;-71
2021/07/05 06:34:36;;;;;;;;;;;17.90;91.00;;;;;;4993337;28;19977;-72
2021/07/05 06:37:02;;;;;;;;;;;17.90;90.70;;;;;;5002970;28;19948;-72
2021/07/05 06:39:27;;;;;;;;;;;17.90;90.60;;;;;;5014525;28;19925;-73
2021/07/05 06:41:53;;;;;;;;;;;17.70;92.60;;;;;;5014496;28;19948;-72
2021/07/05 06:44:18;;;;;;;;;;;17.40;93.40;;;;;;5013696;28;19999;-75
2021/07/05 06:46:44;;;;;;;;;;;17.20;93.60;;;;;;5015043;28;20305;-72
2021/07/05 06:49:16;;;;;;;;;;;17.20;93.50;;;;;;5015066;28;19930;-73
2021/07/05 06:51:41;;;;;;;;;;;17.00;94.10;;;;;;5015630;28;19923;-72
2021/07/05 06:54:07;;;;;;;;;;;16.90;94.40;;;;;;5014730;28;19936;-72
2021/07/05 06:56:32;;;;;;;;;;;16.90;94.20;;;;;;5014631;28;19954;-72
2021/07/05 06:58:58;;;;;;;;;;;17.00;94.20;;;;;;5015345;28;19973;-72
2021/07/05 07:01:23;;;;;;;;;;;17.00;94.20;;;;;;5014843;28;19928;-72
2021/07/05 07:03:49;;;;;;;;;;;17.10;94.40;;;;;;5015082;28;19921;-72
2021/07/05 07:06:14;;;;;;;;;;;17.00;94.40;;;;;;5012433;28;20009;-72
2021/07/05 07:08:40;;;;;;;;;;;17.10;94.20;;;;;;4994954;28;19930;-72
2021/07/05 07:11:05;;;;;;;;;;;17.10;94.30;;;;;;4993829;28;20019;-73
2021/07/05 07:13:31;;;;;;;;;;;17.10;94.30;;;;;;4995098;28;20440;-72
2021/07/05 07:15:59;;;;;;;;;;;17.20;94.60;;;;;;4995411;28;19932;-74
2021/07/05 07:20:57;;;;;;;;;;;17.20;94.40;;;;;;4995648;28;19969;-73
2021/07/05 07:23:22;;;;;;;;;;;17.30;94.50;;;;;;4995167;28;20031;-72
2021/07/05 07:25:48;;;;;;;;;;;17.50;93.80;;;;;;4993831;28;20018;-73
2021/07/05 07:28:13;;;;;;;;;;;17.60;94.20;;;;;;4994010;28;19935;-74
2021/07/05 07:30:39;;;;;;;;;;;17.50;94.20;;;;;;4993947;28;20281;-73
2021/07/05 07:33:04;;;;;;;;;;;17.50;94.10;;;;;;4994808;28;20432;-75
2021/07/05 07:35:30;;;;;;;;;;;17.40;94.00;;;;;;4993812;28;19962;-75
2021/07/05 07:37:56;;;;;;;;;;;17.40;94.50;;;;;;5010346;28;20020;-74
2021/07/05 07:40:24;;;;;;;;;;;17.30;94.40;;;;;;5013777;28;20258;-75
2021/07/05 07:42:49;;;;;;;;;;;17.30;94.40;;;;;;5014492;28;20366;-74
2021/07/05 07:45:15;;;;;;;;;;;17.20;94.60;;;;;;5013480;28;19920;-74
2021/07/05 07:47:41;;;;;;;;;;;17.20;94.80;;;;;;5014749;28;19926;-74
2021/07/05 07:50:07;;;;;;;;;;;17.10;94.50;;;;;;5014433;28;19920;-76
2021/07/05 07:52:32;;;;;;;;;;;17.00;94.80;;;;;;5014885;28;19943;-74
2021/07/05 07:54:59;;;;;;;;;;;17.00;95.00;;;;;;5001159;28;19942;-72
2021/07/05 07:57:25;;;;;;;;;;;17.00;95.20;;;;;;4993242;28;20320;-73
2021/07/05 07:59:50;;;;;;;;;;;17.10;95.10;;;;;;4994736;28;19923;-72
2021/07/05 08:02:16;;;;;;;;;;;17.20;95.30;;;;;;4994282;28;20084;-72
2021/07/05 08:04:41;;;;;;;;;;;17.40;95.60;;;;;;4993509;28;19924;-73
2021/07/05 08:07:07;;;;;;;;;;;17.70;94.80;;;;;;4994674;28;19923;-73
2021/07/05 08:09:33;;;;;;;;;;;18.00;94.60;;;;;;4993433;28;20477;-73
2021/07/05 08:11:58;;;;;;;;;;;18.20;94.10;;;;;;4993790;28;19924;-74
2021/07/05 08:14:24;;;;;;;;;;;18.40;94.10;;;;;;4994295;28;19923;-75
2021/07/05 08:16:49;;;;;;;;;;;18.40;93.70;;;;;;4994883;28;19925;-74
2021/07/05 08:19:15;;;;;;;;;;;18.40;93.90;;;;;;4994653;28;19931;-73
2021/07/05 08:21:41;;;;;;;;;;;18.40;93.50;;;;;;4994731;28;19951;-73
2021/07/05 08:24:07;;;;;;;;;;;18.20;93.60;;;;;;4993668;28;20014;-73
2021/07/05 08:26:32;;;;;;;;;;;18.20;93.90;;;;;;4994392;28;19968;-74
2021/07/05 08:28:58;;;;;;;;;;;18.10;94.20;;;;;;4994738;28;19921;-73
2021/07/05 08:31:23;;;;;;;;;;;18.00;93.90;;;;;;4994137;28;19926;-73
2021/07/05 08:33:51;;;;;;;;;;;18.00;94.40;;;;;;4997396;28;19920;-74
2021/07/05 08:36:16;;;;;;;;;;;18.00;94.10;;;;;;5000153;28;19964;-73
2021/07/05 08:38:42;;;;;;;;;;;18.00;93.90;;;;;;5016246;28;19966;-75
2021/07/05 08:41:07;;;;;;;;;;;17.90;94.60;;;;;;5016263;28;19958;-74
2021/07/05 08:43:33;;;;;;;;;;;18.10;93.80;;;;;;5016731;28;20045;-75
2021/07/05 08:46:05;;;;;;;;;;;18.40;93.70;;;;;;5016829;28;19920;-73
2021/07/05 08:48:36;;;;;;;;;;;19.00;93.50;;;;;;5017549;28;19924;-73
2021/07/05 08:51:02;;;;;;;;;;;19.90;92.20;;;;;;5017419;28;19923;-60
2021/07/05 08:53:27;;;;;;;;;;;20.10;91.30;;;;;;5017577;28;20022;-65
2021/07/05 08:55:53;;;;;;;;;;;19.90;91.70;;;;;;5017718;28;19959;-59
2021/07/05 08:58:18;;;;;;;;;;;19.60;92.00;;;;;;5017039;28;19967;-65
2021/07/05 09:00:44;;;;;;;;;;;19.30;91.10;;;;;;5017452;28;19929;-64
2021/07/05 09:03:09;;;;;;;;;;;19.20;91.70;;;;;;5017192;28;19954;-62
2021/07/05 09:05:35;;;;;;;;;;;19.20;91.90;;;;;;5017834;28;19968;-64
2021/07/05 09:08:10;;;;;;;;;;;19.10;92.50;;;;;;5017094;28;19925;-61
2021/07/05 09:10:43;;;;;;;;;;;19.10;91.80;;;;;;5017346;28;19962;-62
2021/07/05 09:13:16;;;;;;;;;;;18.90;92.10;;;;;;5017260;28;20011;-67
2021/07/05 09:15:49;;;;;;;;;;;18.70;92.60;;;;;;5017456;28;19968;-71
2021/07/05 09:26:24;;;;;;;3.47;1.10;;;21.00;83.80;;;;;;5131886;27;20282;-61
2021/07/05 09:28:52;;;;;;;3.80;1.17;;;21.20;88.60;;;;;;5111485;28;20032;-76
2021/07/05 09:31:33;;;;;;;1.38;1.20;;;21.70;83.60;;;;;;5093387;28;20028;-78
2021/07/05 09:33:59;;;;;;;2.40;1.15;;;21.40;82.70;;;;;;5094439;28;20036;-81
2021/07/05 09:36:25;;;;;;;1.50;1.35;;;21.00;83.00;;;;;;5076526;28;20081;-77
2021/07/05 09:38:51;;;;;;;1.60;1.38;;;20.80;83.60;;;;;;5111790;28;20096;-77
2021/07/05 09:41:30;;;;;;;2.75;1.48;;;20.70;83.50;;;;;;5076506;28;20051;-78
2021/07/05 09:44:00;;;;;;;1.93;1.33;;;20.50;86.10;;;;;;5111041;28;20035;-78
2021/07/05 09:46:41;;;;;;;1.67;1.40;;;20.30;85.00;;;;;;5076336;28;20099;-78
2021/07/05 09:49:29;;;;;;;2.97;1.35;;;20.30;85.30;;;;;;5111578;28;20020;-81
2021/07/05 09:52:15;;;;;;;2.95;1.70;;;20.30;85.00;;;;;;5076692;28;20020;-80
2021/07/05 09:54:46;;;;;;;3.08;1.50;;;20.10;85.10;;;;;;5078254;28;20077;-76
2021/07/05 09:57:30;;;;;;;2.25;1.50;;;20.00;85.30;;;;;;5073201;28;20024;-79
2021/07/05 10:00:08;;;;;;;2.33;1.70;;;20.10;83.80;;;;;;5066368;28;20404;-82
2021/07/05 10:02:34;;;;;;;4.53;1.60;;;20.10;83.70;;;;;;5070304;28;20110;-74
2021/07/05 10:05:11;;;;;;;4.85;1.70;;;20.30;84.00;;;;;;5035957;28;20021;-83
2021/07/05 10:07:36;;;;;;;4.20;2.05;;;20.30;81.40;;;;;;5036074;28;20047;-77
2021/07/05 10:10:13;;;;;;;10.75;2.40;;;20.30;82.40;;;;;;5035992;28;20412;-79
2021/07/05 10:12:38;;;;;;;2.25;1.88;;;20.30;82.10;;;;;;5053109;28;20039;-79
2021/07/05 10:15:08;;;;;;;1.98;1.77;;;20.20;83.20;;;;;;5069474;28;20020;-76
2021/07/05 10:17:39;;;;;;;2.00;1.80;;;20.30;83.90;;;;;;5050832;28;20108;-77
2021/07/05 10:20:08;;;;;;;2.13;1.90;;;20.40;85.10;;;;;;5069033;28;20024;-78
2021/07/05 10:22:34;;;;;;;3.42;2.00;;;20.30;84.10;;;;;;5033442;28;20029;-79
2021/07/05 10:24:59;;;;;;;4.05;2.03;;;20.10;84.60;;;;;;5055924;28;20056;-76
2021/07/05 10:27:25;;;;;;;5.40;2.20;;;20.20;84.40;;;;;;5066989;28;20428;-77
2021/07/05 10:29:51;;;;;;;3.55;2.22;;;20.20;86.30;;;;;;5067151;28;20500;-77
2021/07/05 10:32:17;;;;;;;2.35;2.10;;;20.30;86.20;;;;;;5067950;28;20103;-76
2021/07/05 10:34:43;;;;;;;3.30;2.05;;;20.30;82.60;;;;;;5068112;28;20553;-77
2021/07/05 10:37:18;;;;;;;3.17;2.42;;;20.20;82.70;;;;;;5066061;28;20400;-76
2021/07/05 10:39:46;;;;;;;3.00;2.08;;;20.10;83.50;;;;;;5041022;28;20029;-75
2021/07/05 10:42:31;;;;;;;4.78;2.40;;;20.10;84.20;;;;;;5073779;28;20446;-76
2021/07/05 10:44:56;;;;;;;6.78;2.40;;;20.00;83.60;;;;;;5074514;28;20050;-77
2021/07/05 10:47:58;;;;;;;4.15;2.00;;;19.80;84.00;;;;;;5056929;28;20543;-80
2021/07/05 10:50:42;;;;;;;3.78;2.03;;;19.70;82.60;;;;;;4993341;28;20022;-78
2021/07/05 10:53:46;;;;;;;3.28;2.13;;;19.70;83.20;;;;;;5067252;28;20044;-76
2021/07/05 10:56:32;;;;;;;4.10;2.50;;;19.70;84.80;;;;;;5070233;28;20542;-78
2021/07/05 10:59:13;;;;;;;5.03;2.40;;;19.80;84.20;;;;;;5073657;28;20020;-75
2021/07/05 11:01:38;;;;;;;3.35;2.17;;;20.10;84.40;;;;;;5073403;28;20039;-77
2021/07/05 11:04:29;;;;;;;5.20;2.80;;;20.00;85.00;;;;;;5074551;28;20473;-76
2021/07/05 11:07:12;;;;;;;5.18;2.30;;;20.10;84.60;;;;;;5073247;28;20386;-77
2021/07/05 11:09:54;;;;;;;4.10;2.38;;;20.10;81.30;;;;;;5057010;28;20060;-76
2021/07/05 11:12:30;;;;;;;3.85;2.25;;;20.10;82.80;;;;;;5073100;28;20070;-77
2021/07/05 11:14:56;;;;;;;6.40;2.92;;;20.10;81.60;;;;;;5073236;28;20032;-74
2021/07/05 11:17:23;;;;;;;4.03;2.45;;;20.10;81.60;;;;;;5073037;28;20036;-74
2021/07/05 11:19:49;;;;;;;4.50;2.53;;;20.00;82.50;;;;;;5073188;28;20381;-75
2021/07/05 11:22:21;;;;;;;5.93;2.83;;;20.20;81.60;;;;;;5073136;28;20024;-77
2021/07/05 11:24:50;;;;;;;4.38;2.50;;;20.10;83.40;;;;;;5066669;28;20416;-76
2021/07/05 11:27:27;;;;;;;5.45;2.90;;;20.00;83.20;;;;;;5036431;28;20017;-75
2021/07/05 11:29:53;;;;;;;7.13;2.70;;;20.10;85.10;;;;;;5020187;28;20029;-78
2021/07/05 11:32:39;;;;;;;5.00;2.80;;;20.10;84.60;;;;;;5036219;28;20082;-77
2021/07/05 11:35:28;;;;;;;4.53;2.97;;;20.10;85.30;;;;;;5020048;28;20473;-77
2021/07/05 11:37:54;;;;;;;4.80;2.85;;;20.10;84.80;;;;;;5037804;28;20057;-77
2021/07/05 11:40:41;;;;;;;7.20;2.70;;;20.00;86.00;;;;;;5016570;28;20079;-76
2021/07/05 11:43:06;;;;;;;5.75;2.38;;;20.10;87.00;;;;;;5033933;28;20056;-75
2021/07/05 11:45:46;;;;;;;4.35;2.90;;;20.00;83.70;;;;;;5016052;28;20029;-77
2021/07/05 11:48:40;;;;;;;4.40;2.58;;;20.00;85.20;;;;;;4999715;28;20017;-78
2021/07/05 11:51:19;;;;;;;5.53;3.35;;;20.40;84.90;;;;;;5033668;28;20405;-75
2021/07/05 11:53:49;;;;;;;5.72;3.20;;;20.60;84.40;;;;;;5016288;28;20097;-76
2021/07/05 11:56:39;;;;;;;7.82;3.17;;;20.70;82.80;;;;;;5033090;28;20030;-78
2021/07/05 11:59:07;;;;;;;6.15;3.50;;;20.60;82.10;;;;;;5015908;28;20025;-75
2021/07/05 12:01:33;;;;;;;5.03;3.13;;;20.80;82.70;;;;;;4999686;28;20045;-76
2021/07/05 12:03:59;;;;;;;3.88;2.47;;;20.80;80.40;;;;;;4999603;28;20493;-76
2021/07/05 12:06:25;;;;;;;4.40;2.70;;;20.70;81.00;;;;;;5015697;28;20536;-77
2021/07/05 12:09:04;;;;;;;7.03;2.83;;;20.70;81.30;;;;;;5015322;28;20025;-78
2021/07/05 12:11:41;;;;;;;5.22;2.50;;;20.60;82.00;;;;;;5033429;28;20037;-77
2021/07/05 12:14:08;;;;;;;6.93;2.80;;;20.70;82.90;;;;;;5015300;28;20544;-76
2021/07/05 12:16:36;;;;;;;5.40;2.60;;;20.80;83.40;;;;;;5033036;28;20025;-76
2021/07/05 12:19:02;;;;;;;5.30;3.05;;;20.60;83.90;;;;;;5033222;28;20025;-77
2021/07/05 12:21:33;;;;;;;4.63;2.95;;;20.50;84.20;;;;;;5033287;28;20096;-77
2021/07/05 12:24:10;;;;;;;5.20;2.60;;;20.40;83.60;;;;;;5032891;28;20022;-77
2021/07/05 12:26:41;;;;;;;4.85;2.85;;;20.20;83.90;;;;;;5032835;28;20104;-79
2021/07/05 12:29:30;;;;;;;6.95;2.95;;;20.00;83.70;;;;;;5033000;28;20381;-78
2021/07/05 12:31:59;;;;;;;5.97;2.70;;;20.00;83.80;;;;;;5032936;28;20053;-76
2021/07/05 12:34:43;;;;;;;3.35;2.40;;;19.80;82.60;;;;;;5033166;28;20471;-77
2021/07/05 12:37:30;;;;;;;5.65;2.90;;;19.60;80.80;;;;;;5042421;28;20032;-75
2021/07/05 12:40:00;;;;;;;6.00;2.78;;;19.60;83.10;;;;;;5053014;28;20025;-78
2021/07/05 12:42:41;;;;;;;4.05;2.63;;;19.60;82.10;;;;;;5052629;28;20476;-77
2021/07/05 12:45:11;;;;;;;5.30;2.28;;;19.70;82.80;;;;;;5052978;28;20029;-77
2021/07/05 12:47:51;;;;;;;4.38;2.20;;;19.70;79.30;;;;;;5052429;28;20104;-76
2021/07/05 12:50:25;;;;;;;5.15;2.47;;;19.60;76.30;;;;;;5052803;28;20506;-78
2021/07/05 12:53:02;;;;;;;4.65;1.98;;;19.70;77.60;;;;;;5052599;28;20025;-78
2021/07/05 12:55:28;;;;;;;3.85;1.85;;;19.80;78.20;;;;;;5052482;28;20546;-77
2021/07/05 12:57:54;;;;;;;6.28;2.83;;;19.60;79.00;;;;;;5052208;28;20017;-77
2021/07/05 13:00:24;;;;;;;5.05;2.45;;;19.50;80.30;;;;;;5052327;28;20119;-79
2021/07/05 13:02:51;;;;;;;6.20;2.60;;;19.40;80.90;;;;;;5052589;28;20025;-78
2021/07/05 13:05:21;;;;;;;4.18;2.35;;;19.30;81.80;;;;;;5052471;28;20542;-76
2021/07/05 13:07:59;;;;;;;4.63;2.33;;;19.30;81.70;;;;;;5051811;28;20411;-78
2021/07/05 13:10:37;;;;;;;3.80;2.10;;;19.30;83.30;;;;;;5052455;28;20047;-75
2021/07/05 13:13:10;;;;;;;2.75;1.70;;;19.50;82.60;;;;;;5052325;28;20340;-77
2021/07/05 13:15:55;;;;;;;5.05;2.08;;;19.60;83.40;;;;;;5052449;28;20039;-77
2021/07/05 13:18:23;;;;;;;3.38;2.58;;;19.30;81.80;;;;;;5052182;28;20086;-77
2021/07/05 13:20:52;;;;;;;4.30;2.15;;;18.90;85.10;;;;;;5052286;28;20020;-75
2021/07/05 13:23:30;;;;;;;4.57;2.20;;;18.70;85.40;;;;;;5052325;28;20032;-76
2021/07/05 13:25:57;;;;;;;3.83;2.08;;;18.70;86.40;;;;;;5051970;28;20498;-77
2021/07/05 13:28:23;;;;;;;4.35;2.42;;;18.90;87.80;;;;;;5052062;28;20438;-78
2021/07/05 13:30:51;;;;;;;4.70;2.30;;;18.90;87.20;;;;;;5052374;28;20013;-78
2021/07/05 13:33:19;;;;;;;4.03;2.33;;;18.80;87.80;;;;;;5052365;28;20032;-77
2021/07/05 13:35:46;;;;;;;6.55;2.50;;;18.60;89.10;;;;;;5052209;28;20039;-77
2021/07/05 13:38:32;;;;;;;2.92;2.10;;;18.50;89.40;;;;;;5041549;28;20048;-74
2021/07/05 13:41:05;;;;;;;4.28;2.25;;;18.70;90.10;;;;;;5045604;28;20485;-74
2021/07/05 13:43:32;;;;;;;4.00;2.10;;;18.90;90.30;;;;;;5042197;28;20025;-77
2021/07/05 13:46:00;;;;;;;8.43;2.42;;;19.20;88.80;;;;;;5032208;28;20386;-77
2021/07/05 13:48:44;;;;;;;3.75;2.00;;;19.50;88.50;;;;;;5031952;28;20025;-77
2021/07/05 13:51:12;;;;;;;4.03;1.83;;;19.50;87.60;;;;;;5032147;28;20100;-77
2021/07/05 13:53:46;;;;;;;1.42;1.27;;;19.50;87.70;;;;;;5032004;28;20030;-74
2021/07/05 13:56:23;;;;;;;3.53;1.40;;;19.30;86.00;;;;;;5031773;28;20030;-76
2021/07/05 13:58:55;;;;;;;1.90;1.35;;;19.10;87.20;;;;;;5013922;28;20025;-76
2021/07/05 14:01:28;;;;;;;1.52;1.10;;;19.00;88.30;;;;;;5032140;28;20025;-79
2021/07/05 14:04:01;;;;;;;1.85;1.55;;;18.80;88.30;;;;;;5031862;28;20032;-75